This is the latest recevied weather packets stored in our database for station/object OK1KZE-6. If no packets are shown the sender has not sent any weather packets the latest 10 day(s).
| Time | Temp. | Humidity | Pressure | Rain* | Wind** | Luminosity | Snow |
|---|---|---|---|---|---|---|---|
| 1777873808 | 11.67° C | 72% | 1015.5 hPa | - | - | - | - |
| 1777873507 | 11.67° C | 70% | 1015.5 hPa | - | - | - | - |
| 1777873207 | 11.11° C | 71% | 1015.5 hPa | - | - | - | - |
| 1777872908 | 11.67° C | 69% | 1015.7 hPa | - | - | - | - |
| 1777872608 | 12.22° C | 66% | 1015.3 hPa | - | - | - | - |
| 1777872307 | 11.11° C | 70% | 1015.4 hPa | - | - | - | - |
| 1777872007 | 12.22° C | 67% | 1015.2 hPa | - | - | - | - |
| 1777871706 | 12.22° C | 65% | 1015.3 hPa | - | - | - | - |
| 1777871408 | 12.22° C | 65% | 1015.1 hPa | - | - | - | - |
| 1777871108 | 12.22° C | 65% | 1015.3 hPa | - | - | - | - |
| 1777870808 | 11.67° C | 66% | 1015.2 hPa | - | - | - | - |
| 1777870507 | 11.67° C | 66% | 1015.1 hPa | - | - | - | - |
| 1777870208 | 11.67° C | 67% | 1015.3 hPa | - | - | - | - |
| 1777869908 | 11.67° C | 67% | 1015.1 hPa | - | - | - | - |
| 1777869608 | 11.67° C | 66% | 1015.1 hPa | - | - | - | - |
| 1777869308 | 12.22° C | 66% | 1015 hPa | - | - | - | - |
| 1777869008 | 12.22° C | 64% | 1015.1 hPa | - | - | - | - |
| 1777868707 | 12.22° C | 64% | 1014.8 hPa | - | - | - | - |
| 1777868407 | 12.22° C | 64% | 1015 hPa | - | - | - | - |
| 1777868108 | 12.78° C | 61% | 1015 hPa | - | - | - | - |
| 1777867808 | 12.78° C | 60% | 1015.2 hPa | - | - | - | - |
| 1777867507 | 13.33° C | 60% | 1015.2 hPa | - | - | - | - |
| 1777867209 | 13.33° C | 58% | 1015.3 hPa | - | - | - | - |
| 1777866907 | 15° C | 54% | 1015.2 hPa | - | - | - | - |
| 1777866608 | 14.44° C | 55% | 1015.1 hPa | - | - | - | - |
* Rain since midnight (hover to see other rain measurements)
** Current wind speed in m/s (hover to see current wind gust speed)